Time;durP1;ratioP1;P1;durP2;ratioP2;P2;SDS_P1;SDS_P2;PMS_P1;PMS_P2;Temp;Humidity;BMP_temperature;BMP_pressure;BME280_temperature;BME280_humidity;BME280_pressure;Samples;Min_cycle;Max_cycle;Signal;HPM_P1;HPM_P2
2023/05/23 00:01:02;;;;;;;35.53;22.17;;;14.10;99.90;;;;;;5074651;28;20025;-68
2023/05/23 00:03:30;;;;;;;32.05;21.60;;;14.00;99.90;;;;;;5074543;28;20047;-69
2023/05/23 00:05:55;;;;;;;32.42;22.50;;;14.00;99.90;;;;;;5074461;28;20489;-68
2023/05/23 00:08:21;;;;;;;32.92;23.38;;;14.00;99.90;;;;;;5073543;28;20035;-68
2023/05/23 00:10:47;;;;;;;32.55;23.38;;;13.90;99.90;;;;;;5074281;28;20036;-68
2023/05/23 00:13:13;;;;;;;32.28;22.73;;;13.90;99.90;;;;;;5074418;28;20029;-69
2023/05/23 00:15:40;;;;;;;38.20;23.33;;;13.90;99.90;;;;;;5072992;28;20531;-68
2023/05/23 00:18:07;;;;;;;34.30;24.05;;;13.90;99.90;;;;;;5074303;28;20029;-68
2023/05/23 00:20:35;;;;;;;39.42;25.17;;;13.90;99.90;;;;;;5073142;28;20024;-68
2023/05/23 00:23:02;;;;;;;37.05;24.80;;;14.00;99.90;;;;;;5074400;28;20032;-68
2023/05/23 00:25:32;;;;;;;34.00;23.17;;;14.10;99.90;;;;;;5074310;28;20032;-69
2023/05/23 00:27:59;;;;;;;33.40;22.95;;;14.10;99.90;;;;;;5073864;28;20048;-68
2023/05/23 00:30:25;;;;;;;39.40;26.83;;;14.20;99.90;;;;;;5074024;28;20032;-68
2023/05/23 00:32:53;;;;;;;38.60;26.40;;;14.20;99.90;;;;;;5074166;28;20031;-68
2023/05/23 00:35:19;;;;;;;35.92;25.45;;;14.30;99.90;;;;;;5073860;28;20390;-68
2023/05/23 00:37:44;;;;;;;35.75;24.20;;;14.30;99.90;;;;;;5074099;28;20035;-68
2023/05/23 00:40:10;;;;;;;33.95;24.10;;;14.30;99.90;;;;;;5073863;28;20025;-68
2023/05/23 00:42:36;;;;;;;36.00;23.17;;;14.40;99.90;;;;;;5073846;28;20048;-69
2023/05/23 00:45:01;;;;;;;35.20;23.25;;;14.40;99.90;;;;;;5073663;28;20040;-68
2023/05/23 00:47:28;;;;;;;30.55;22.33;;;14.40;99.90;;;;;;5073733;28;20065;-69
2023/05/23 00:49:53;;;;;;;33.47;22.80;;;14.40;99.90;;;;;;5073600;28;20020;-68
2023/05/23 00:52:19;;;;;;;30.90;22.40;;;14.40;99.90;;;;;;5073834;28;20108;-68
2023/05/23 00:54:44;;;;;;;30.23;22.42;;;14.40;99.90;;;;;;5073637;28;20414;-68
2023/05/23 00:57:10;;;;;;;31.67;22.10;;;14.40;99.90;;;;;;5073779;28;20029;-68
2023/05/23 00:59:37;;;;;;;26.92;19.88;;;14.50;99.90;;;;;;5073630;28;20393;-68
2023/05/23 01:02:02;;;;;;;28.25;19.45;;;14.50;99.90;;;;;;5073626;28;20024;-68
2023/05/23 01:04:28;;;;;;;29.85;20.33;;;14.50;99.90;;;;;;5073803;28;20530;-68
2023/05/23 01:06:54;;;;;;;29.88;19.80;;;14.50;99.90;;;;;;5073571;28;20129;-68
2023/05/23 01:09:21;;;;;;;25.88;18.10;;;14.40;99.90;;;;;;5073458;28;20033;-68
2023/05/23 01:12:10;;;;;;;20.67;14.93;;;14.40;99.90;;;;;;5073451;28;20028;-68
2023/05/23 01:14:50;;;;;;;20.25;14.82;;;14.30;99.90;;;;;;5073504;28;20055;-68
2023/05/23 01:17:25;;;;;;;18.27;14.43;;;14.20;99.90;;;;;;5073404;28;20025;-68
2023/05/23 01:20:01;;;;;;;20.02;14.40;;;14.20;99.90;;;;;;5073111;28;20032;-68
2023/05/23 01:22:49;;;;;;;17.95;14.48;;;14.20;99.90;;;;;;5073271;28;20040;-68
2023/05/23 01:25:58;;;;;;;18.60;14.68;;;14.20;99.90;;;;;;5073384;28;20520;-68
2023/05/23 01:28:27;;;;;;;20.92;15.05;;;14.20;99.90;;;;;;5073140;28;20043;-69
2023/05/23 01:30:57;;;;;;;21.02;15.32;;;14.10;99.90;;;;;;5073635;28;20049;-68
2023/05/23 01:33:24;;;;;;;20.45;15.25;;;14.10;99.90;;;;;;5073261;28;20025;-68
2023/05/23 01:35:51;;;;;;;21.67;15.43;;;14.10;99.90;;;;;;5073379;28;20031;-68
2023/05/23 01:38:16;;;;;;;18.98;14.55;;;14.10;99.90;;;;;;5071962;28;20520;-68
2023/05/23 01:40:42;;;;;;;19.33;14.45;;;14.10;99.90;;;;;;5073343;28;20060;-68
2023/05/23 01:43:08;;;;;;;20.00;14.45;;;14.10;99.90;;;;;;5073164;28;20367;-68
2023/05/23 01:45:34;;;;;;;20.27;15.00;;;14.20;99.90;;;;;;5073345;28;20028;-68
2023/05/23 01:48:01;;;;;;;19.13;14.98;;;14.10;99.90;;;;;;5072997;28;20040;-68
2023/05/23 01:50:27;;;;;;;20.30;15.13;;;14.10;99.90;;;;;;5073244;28;20017;-68
2023/05/23 01:52:54;;;;;;;19.52;15.27;;;14.10;99.90;;;;;;5072932;28;20484;-68
2023/05/23 01:55:23;;;;;;;22.27;15.63;;;14.10;99.90;;;;;;5073114;28;20027;-68
2023/05/23 01:57:50;;;;;;;19.30;15.13;;;14.10;99.90;;;;;;5073045;28;20489;-68
2023/05/23 02:00:17;;;;;;;21.23;15.38;;;14.10;99.90;;;;;;5073028;28;20035;-68
2023/05/23 02:02:42;;;;;;;20.98;15.48;;;14.10;99.90;;;;;;5072996;28;20107;-68
2023/05/23 02:05:10;;;;;;;19.70;15.70;;;14.10;99.90;;;;;;5073130;28;20099;-68
2023/05/23 02:07:36;;;;;;;22.63;16.42;;;14.10;99.90;;;;;;5072917;28;20482;-68
2023/05/23 02:10:03;;;;;;;19.20;15.73;;;14.10;99.90;;;;;;5072977;28;20111;-69
2023/05/23 02:12:28;;;;;;;24.05;16.67;;;14.00;99.90;;;;;;5072977;28;20025;-68
2023/05/23 02:14:54;;;;;;;26.50;17.08;;;14.00;99.90;;;;;;5072974;28;20047;-68
2023/05/23 02:17:20;;;;;;;24.00;17.70;;;14.00;99.90;;;;;;5072785;28;20075;-68
2023/05/23 02:19:47;;;;;;;25.02;16.83;;;14.10;99.90;;;;;;5072609;28;20031;-68
2023/05/23 02:22:13;;;;;;;23.77;16.30;;;14.10;99.90;;;;;;5072697;28;20074;-68
2023/05/23 02:24:38;;;;;;;21.98;16.52;;;14.10;99.90;;;;;;5073012;28;20032;-68
2023/05/23 02:27:04;;;;;;;26.50;17.80;;;14.10;99.90;;;;;;5072315;28;20058;-68
2023/05/23 02:29:30;;;;;;;30.35;18.85;;;14.10;99.90;;;;;;5072754;28;20032;-67
2023/05/23 02:31:55;;;;;;;27.50;19.58;;;14.10;99.90;;;;;;5076436;28;20463;-68
2023/05/23 02:34:21;;;;;;;27.52;18.10;;;14.00;99.90;;;;;;5076239;28;20490;-68
2023/05/23 02:36:46;;;;;;;29.52;18.75;;;14.00;99.90;;;;;;5076387;28;20386;-68
2023/05/23 02:39:12;;;;;;;25.70;18.88;;;14.00;99.90;;;;;;5076277;28;20103;-68
2023/05/23 02:41:37;;;;;;;27.20;18.60;;;14.00;99.90;;;;;;5076199;28;20024;-68
2023/05/23 02:44:03;;;;;;;26.20;17.90;;;14.00;99.90;;;;;;5076348;28;20039;-68
2023/05/23 02:46:28;;;;;;;26.02;17.73;;;14.00;99.90;;;;;;5076214;28;20509;-68
2023/05/23 02:48:54;;;;;;;30.73;19.23;;;14.10;99.90;;;;;;5075875;28;20070;-68
2023/05/23 02:51:20;;;;;;;24.55;17.65;;;14.10;99.90;;;;;;5075828;28;20115;-68
2023/05/23 02:53:45;;;;;;;29.48;18.02;;;14.10;99.90;;;;;;5075969;28;20032;-68
2023/05/23 02:56:12;;;;;;;25.90;18.27;;;14.10;99.90;;;;;;5075969;28;20020;-68
2023/05/23 02:58:38;;;;;;;25.27;18.30;;;14.10;99.90;;;;;;5075942;28;20198;-68
2023/05/23 03:01:04;;;;;;;27.70;18.67;;;14.10;99.90;;;;;;5075934;28;20052;-68
2023/05/23 03:03:30;;;;;;;29.90;18.17;;;14.10;99.90;;;;;;5075700;28;20525;-68
2023/05/23 03:05:57;;;;;;;28.02;19.17;;;14.10;99.90;;;;;;5075435;28;20035;-68
2023/05/23 03:08:22;;;;;;;30.52;19.35;;;14.10;99.90;;;;;;5075720;28;20037;-69
2023/05/23 03:10:48;;;;;;;26.33;18.70;;;14.20;99.90;;;;;;5075699;28;20071;-68
2023/05/23 03:13:14;;;;;;;24.90;18.10;;;14.20;99.90;;;;;;5075770;28;20432;-68
2023/05/23 03:15:39;;;;;;;26.38;18.33;;;14.20;99.90;;;;;;5075571;28;20393;-68
2023/05/23 03:18:05;;;;;;;25.15;17.35;;;14.20;99.90;;;;;;5075348;28;20025;-68
2023/05/23 03:20:30;;;;;;;24.05;18.52;;;14.20;99.90;;;;;;5075737;28;20021;-68
2023/05/23 03:22:56;;;;;;;29.98;19.38;;;14.20;99.90;;;;;;5075488;28;20421;-68
2023/05/23 03:25:21;;;;;;;30.70;19.52;;;14.20;99.90;;;;;;5075332;28;20036;-68
2023/05/23 03:27:47;;;;;;;28.58;19.75;;;14.20;99.90;;;;;;5075102;28;20048;-68
2023/05/23 03:30:13;;;;;;;29.95;21.23;;;14.20;99.90;;;;;;5075048;28;20386;-68
2023/05/23 03:32:38;;;;;;;37.40;23.65;;;14.20;99.90;;;;;;5075167;28;20060;-69
2023/05/23 03:35:04;;;;;;;46.15;27.83;;;14.20;99.90;;;;;;5075329;28;20394;-68
2023/05/23 03:37:30;;;;;;;51.72;31.60;;;14.20;99.90;;;;;;5075206;28;20101;-68
2023/05/23 03:39:55;;;;;;;46.40;30.08;;;14.20;99.90;;;;;;5075225;28;20098;-68
2023/05/23 03:42:21;;;;;;;54.70;34.55;;;14.20;99.90;;;;;;5074755;28;20024;-68
2023/05/23 03:44:46;;;;;;;56.30;34.70;;;14.20;99.90;;;;;;5075110;28;20472;-68
2023/05/23 03:47:11;;;;;;;54.35;33.35;;;14.20;99.90;;;;;;5074768;28;20020;-68
2023/05/23 03:49:37;;;;;;;55.60;34.75;;;14.20;99.90;;;;;;5074868;28;20397;-68
2023/05/23 03:52:03;;;;;;;57.60;34.83;;;14.20;99.90;;;;;;5075090;28;20107;-68
2023/05/23 03:54:28;;;;;;;59.00;33.97;;;14.20;99.90;;;;;;5075144;28;20033;-68
2023/05/23 03:56:54;;;;;;;52.45;33.00;;;14.20;99.90;;;;;;5074904;28;20095;-68
2023/05/23 03:59:19;;;;;;;55.17;34.92;;;14.20;99.90;;;;;;5074682;28;20085;-68
2023/05/23 04:01:45;;;;;;;58.10;34.13;;;14.20;99.90;;;;;;5074661;28;20119;-68
2023/05/23 04:04:10;;;;;;;52.35;33.08;;;14.20;99.90;;;;;;5074662;28;20025;-68
2023/05/23 04:06:37;;;;;;;51.60;32.63;;;14.20;99.90;;;;;;5074815;28;20039;-68
2023/05/23 04:09:02;;;;;;;53.83;31.52;;;14.20;99.90;;;;;;5074499;28;20587;-68
2023/05/23 04:11:29;;;;;;;46.63;30.98;;;14.10;99.90;;;;;;5074732;28;20103;-68
2023/05/23 04:13:54;;;;;;;50.92;30.58;;;14.10;99.90;;;;;;5074698;28;20029;-68
2023/05/23 04:16:21;;;;;;;48.28;29.88;;;14.10;99.90;;;;;;5074582;28;20488;-68
2023/05/23 04:18:47;;;;;;;44.60;29.10;;;14.10;99.90;;;;;;5074599;28;20063;-68
2023/05/23 04:21:12;;;;;;;40.28;27.98;;;14.10;99.90;;;;;;5074313;28;20067;-68
2023/05/23 04:23:38;;;;;;;43.45;26.77;;;14.10;99.90;;;;;;5074266;28;20039;-68
2023/05/23 04:26:04;;;;;;;35.80;24.38;;;14.10;99.90;;;;;;5074117;28;20031;-68
2023/05/23 04:28:30;;;;;;;37.10;25.05;;;14.10;99.90;;;;;;5074114;28;20024;-68
2023/05/23 04:30:57;;;;;;;31.70;23.70;;;14.00;99.90;;;;;;5074051;28;20474;-68
2023/05/23 04:33:23;;;;;;;36.67;23.13;;;14.10;99.90;;;;;;5074019;28;20023;-68
2023/05/23 04:35:48;;;;;;;36.88;23.20;;;14.10;99.90;;;;;;5074011;28;20028;-68
2023/05/23 04:38:14;;;;;;;32.00;21.92;;;14.10;99.90;;;;;;5073879;28;20086;-68
2023/05/23 04:40:40;;;;;;;33.05;21.92;;;14.10;99.90;;;;;;5074060;28;20086;-68
2023/05/23 04:43:08;;;;;;;33.15;21.73;;;14.10;99.90;;;;;;5073938;28;20074;-68
2023/05/23 04:45:33;;;;;;;31.05;20.23;;;14.10;99.90;;;;;;5073913;28;20107;-68
2023/05/23 04:47:59;;;;;;;32.03;20.77;;;14.00;99.90;;;;;;5073795;28;20072;-68
2023/05/23 04:50:24;;;;;;;30.33;20.35;;;14.00;99.90;;;;;;5073643;28;20024;-68
2023/05/23 04:52:50;;;;;;;29.23;19.95;;;14.10;99.90;;;;;;5073226;28;20035;-68
2023/05/23 04:55:16;;;;;;;29.88;20.25;;;14.00;99.90;;;;;;5073675;28;20021;-68
2023/05/23 04:57:41;;;;;;;27.42;18.98;;;14.00;99.90;;;;;;5073847;28;20029;-68
2023/05/23 05:00:09;;;;;;;26.83;18.45;;;14.10;99.90;;;;;;5073605;28;20074;-68
2023/05/23 05:02:35;;;;;;;27.02;18.45;;;14.10;99.90;;;;;;5073825;28;20366;-68
2023/05/23 05:05:01;;;;;;;27.65;19.67;;;14.10;99.90;;;;;;5073859;28;20474;-68
2023/05/23 05:07:28;;;;;;;29.33;19.70;;;14.10;99.90;;;;;;5072378;28;20029;-68
2023/05/23 05:09:53;;;;;;;28.63;19.13;;;14.10;99.90;;;;;;5073671;28;20385;-69
2023/05/23 05:12:19;;;;;;;28.10;19.23;;;14.10;99.90;;;;;;5073503;28;20025;-69
2023/05/23 05:14:45;;;;;;;26.88;19.85;;;14.10;99.90;;;;;;5073787;28;20020;-68
2023/05/23 05:17:11;;;;;;;33.65;20.48;;;14.10;99.90;;;;;;5073602;28;20056;-68
2023/05/23 05:19:37;;;;;;;34.35;22.13;;;14.10;99.90;;;;;;5073628;28;20021;-69
2023/05/23 05:22:03;;;;;;;29.52;20.13;;;14.10;99.90;;;;;;5073442;28;20078;-68
2023/05/23 05:24:28;;;;;;;31.75;19.83;;;14.00;99.90;;;;;;5073474;28;20057;-68
2023/05/23 05:26:54;;;;;;;32.13;20.58;;;14.00;99.90;;;;;;5072930;28;20052;-68
2023/05/23 05:29:20;;;;;;;29.23;22.20;;;14.00;99.90;;;;;;5073161;28;20024;-68
2023/05/23 05:31:46;;;;;;;35.08;21.27;;;14.00;99.90;;;;;;5073209;28;20020;-68
2023/05/23 05:34:12;;;;;;;30.25;21.48;;;14.00;99.90;;;;;;5073184;28;20035;-68
2023/05/23 05:36:44;;;;;;;32.05;21.65;;;14.00;99.90;;;;;;5073171;28;20469;-69
2023/05/23 05:39:10;;;;;;;32.93;21.93;;;14.10;99.90;;;;;;5072902;28;20397;-68
2023/05/23 05:41:36;;;;;;;34.70;22.73;;;14.10;99.90;;;;;;5073149;28;20036;-68
2023/05/23 05:44:01;;;;;;;36.80;22.83;;;14.00;99.90;;;;;;5073331;28;20040;-69
2023/05/23 05:46:27;;;;;;;37.33;22.90;;;14.00;99.90;;;;;;5073217;28;20393;-68
2023/05/23 05:48:52;;;;;;;40.38;23.83;;;14.00;99.90;;;;;;5072818;28;20505;-69
2023/05/23 05:51:18;;;;;;;39.40;23.23;;;14.00;99.90;;;;;;5072912;28;20028;-68
2023/05/23 05:53:43;;;;;;;41.53;24.75;;;14.00;99.90;;;;;;5072902;28;20474;-68
2023/05/23 05:56:09;;;;;;;34.83;24.23;;;13.90;99.90;;;;;;5072910;28;20171;-69
2023/05/23 05:58:35;;;;;;;33.25;23.52;;;13.90;99.90;;;;;;5073064;28;20056;-69
2023/05/23 06:01:00;;;;;;;38.65;24.50;;;14.00;99.90;;;;;;5073081;28;20028;-69
2023/05/23 06:03:26;;;;;;;42.03;24.77;;;14.00;99.90;;;;;;5072652;28;20033;-69
2023/05/23 06:05:54;;;;;;;39.53;23.95;;;14.00;99.90;;;;;;5076017;28;20021;-69
2023/05/23 06:08:20;;;;;;;38.35;22.67;;;13.90;99.90;;;;;;5076671;28;20108;-68
2023/05/23 06:10:45;;;;;;;37.13;23.23;;;14.00;99.90;;;;;;5076776;28;20562;-69
2023/05/23 06:13:11;;;;;;;40.25;24.02;;;14.10;99.90;;;;;;5076737;28;20047;-69
2023/05/23 06:15:44;;;;;;;38.70;23.35;;;14.00;99.90;;;;;;5076713;28;20020;-68
2023/05/23 06:18:10;;;;;;;;;;;14.00;99.90;;;;;;5076879;28;20029;-69
2023/05/23 06:20:36;;;;;;;36.00;23.33;;;14.00;99.90;;;;;;5076663;28;20323;-69
2023/05/23 06:23:04;;;;;;;43.10;22.35;;;14.10;99.90;;;;;;5076646;28;20107;-69
2023/05/23 06:25:30;;;;;;;33.15;21.73;;;14.10;99.90;;;;;;5076528;28;20032;-68
2023/05/23 06:27:55;;;;;;;30.38;20.85;;;14.00;99.90;;;;;;5075976;28;20052;-68
2023/05/23 06:30:22;;;;;;;29.48;19.48;;;13.90;99.90;;;;;;5076212;28;20048;-69
2023/05/23 06:32:47;;;;;;;27.55;16.65;;;13.80;99.90;;;;;;5076268;28;20017;-68
2023/05/23 06:35:13;;;;;;;26.67;15.73;;;13.80;99.90;;;;;;5075994;28;20021;-69
2023/05/23 06:37:42;;;;;;;21.13;13.93;;;13.80;99.90;;;;;;5076235;28;20040;-68
2023/05/23 06:40:08;;;;;;;25.85;17.30;;;13.80;99.90;;;;;;5075619;28;20028;-68
2023/05/23 06:42:33;;;;;;;20.15;12.40;;;13.80;99.90;;;;;;5077987;28;20343;-69
2023/05/23 06:44:59;;;;;;;16.90;10.98;;;13.80;99.90;;;;;;5089988;28;20036;-65
2023/05/23 06:47:24;;;;;;;19.45;11.27;;;13.80;99.90;;;;;;5085363;28;20028;-69
2023/05/23 06:49:50;;;;;;;15.30;10.75;;;13.80;99.90;;;;;;5095972;28;20587;-69
2023/05/23 06:52:16;;;;;;;19.27;11.15;;;13.80;99.90;;;;;;5081285;28;20056;-69
2023/05/23 06:54:41;;;;;;;15.02;10.63;;;13.80;99.90;;;;;;5076023;28;20518;-69
2023/05/23 06:57:07;;;;;;;17.40;10.90;;;13.80;99.90;;;;;;5075830;28;20066;-69
2023/05/23 06:59:32;;;;;;;14.63;9.27;;;13.80;99.90;;;;;;5075912;28;20028;-69
2023/05/23 07:01:57;;;;;;;13.00;7.90;;;13.90;99.90;;;;;;5075907;28;20094;-68
2023/05/23 07:04:23;;;;;;;10.00;6.93;;;13.80;99.90;;;;;;5075753;28;20021;-68
2023/05/23 07:06:49;;;;;;;12.57;6.88;;;13.80;99.90;;;;;;5075488;28;20036;-68
2023/05/23 07:09:14;;;;;;;9.98;6.18;;;13.80;99.90;;;;;;5071615;28;20032;-68
2023/05/23 07:11:40;;;;;;;8.93;6.03;;;13.70;99.90;;;;;;5074522;28;20103;-68
2023/05/23 07:14:06;;;;;;;9.43;5.20;;;13.70;99.90;;;;;;5074584;28;20028;-69
2023/05/23 07:16:32;;;;;;;9.73;5.38;;;13.70;99.90;;;;;;5075051;28;20016;-68
2023/05/23 07:18:57;;;;;;;6.35;4.82;;;13.70;99.90;;;;;;5075412;28;20055;-68
2023/05/23 07:21:23;;;;;;;9.88;5.93;;;13.60;99.90;;;;;;5075398;28;20539;-68
2023/05/23 07:23:48;;;;;;;7.75;5.45;;;13.50;99.90;;;;;;5075220;28;20025;-68
2023/05/23 07:26:14;;;;;;;8.13;5.95;;;13.30;99.90;;;;;;5070524;28;20068;-69
2023/05/23 07:28:39;;;;;;;7.15;5.50;;;13.30;99.90;;;;;;5055152;28;20039;-68
2023/05/23 07:31:08;;;;;;;6.75;5.55;;;13.30;99.90;;;;;;5055421;28;20021;-68
2023/05/23 07:33:33;;;;;;;8.25;5.70;;;13.30;99.90;;;;;;5055189;28;20076;-68
2023/05/23 07:35:59;;;;;;;9.05;5.53;;;13.40;99.90;;;;;;5062892;28;20060;-68
2023/05/23 07:38:25;;;;;;;9.60;6.07;;;13.40;99.90;;;;;;5055054;28;20540;-68
2023/05/23 07:40:51;;;;;;;14.77;6.63;;;13.30;99.90;;;;;;5054897;28;20390;-68
2023/05/23 07:43:16;;;;;;;8.85;6.00;;;13.40;99.90;;;;;;5055050;28;20104;-68
2023/05/23 07:45:42;;;;;;;10.77;6.38;;;13.40;99.90;;;;;;5055003;28;20041;-68
2023/05/23 07:48:08;;;;;;;12.35;6.05;;;13.40;99.90;;;;;;5055992;28;20102;-68
2023/05/23 07:50:33;;;;;;;12.13;7.10;;;13.50;99.90;;;;;;5058658;28;20021;-68
2023/05/23 07:52:59;;;;;;;9.45;6.68;;;13.50;99.90;;;;;;5074494;28;20367;-68
2023/05/23 07:55:25;;;;;;;12.10;6.97;;;13.40;99.90;;;;;;5074908;28;20390;-68
2023/05/23 07:57:51;;;;;;;9.43;7.38;;;13.40;99.90;;;;;;5074660;28;20064;-68
2023/05/23 08:00:17;;;;;;;10.25;6.93;;;13.30;99.90;;;;;;5074587;28;20553;-68
2023/05/23 08:02:42;;;;;;;10.02;7.05;;;13.20;99.90;;;;;;5055219;28;20064;-68
2023/05/23 08:05:09;;;;;;;12.40;7.65;;;13.20;99.90;;;;;;5054349;28;20135;-68
2023/05/23 08:07:34;;;;;;;9.88;7.35;;;13.20;99.90;;;;;;5054675;28;20504;-68
2023/05/23 08:10:00;;;;;;;11.35;7.40;;;13.10;99.90;;;;;;5054518;28;20106;-68
2023/05/23 08:12:25;;;;;;;12.73;7.63;;;13.20;99.90;;;;;;5054694;28;20029;-68
2023/05/23 08:14:51;;;;;;;17.00;7.47;;;13.20;99.90;;;;;;5054532;28;20021;-68
2023/05/23 08:17:16;;;;;;;12.40;8.60;;;13.20;99.90;;;;;;5054384;28;20025;-68
2023/05/23 08:19:42;;;;;;;15.15;8.05;;;13.20;99.90;;;;;;5054387;28;20092;-68
2023/05/23 08:22:08;;;;;;;12.48;8.13;;;13.10;99.90;;;;;;5054297;28;20379;-69
2023/05/23 08:24:33;;;;;;;11.80;8.55;;;13.20;99.90;;;;;;5054402;28;20029;-69
2023/05/23 08:26:59;;;;;;;14.68;7.90;;;13.20;99.90;;;;;;5054694;28;20140;-69
2023/05/23 08:29:25;;;;;;;12.07;8.70;;;13.30;99.90;;;;;;5073177;28;20040;-69
2023/05/23 08:31:50;;;;;;;13.70;8.70;;;13.20;99.90;;;;;;5074096;28;20028;-69
2023/05/23 08:34:16;;;;;;;13.10;8.80;;;13.20;99.90;;;;;;5074125;28;20028;-69
2023/05/23 08:36:42;;;;;;;13.98;8.95;;;13.20;99.90;;;;;;5073506;28;20024;-69
2023/05/23 08:39:07;;;;;;;12.95;9.20;;;13.20;99.90;;;;;;5073040;28;20025;-68
2023/05/23 08:41:33;;;;;;;18.83;9.68;;;13.10;99.90;;;;;;5073931;28;20060;-69
2023/05/23 08:43:59;;;;;;;14.07;8.82;;;13.00;99.90;;;;;;5073345;28;20111;-68
2023/05/23 08:46:26;;;;;;;15.93;9.13;;;13.10;99.90;;;;;;5069931;28;20111;-68
2023/05/23 08:48:53;;;;;;;16.58;9.43;;;13.10;99.90;;;;;;5053696;28;20037;-69
2023/05/23 08:51:21;;;;;;;15.57;9.93;;;13.00;99.90;;;;;;5054141;28;20025;-69
2023/05/23 08:53:47;;;;;;;13.80;9.63;;;12.90;99.90;;;;;;5053511;28;20036;-70
2023/05/23 08:56:15;;;;;;;13.30;9.15;;;13.00;99.90;;;;;;5053582;28;20363;-69
2023/05/23 08:58:41;;;;;;;22.52;8.93;;;13.00;99.90;;;;;;5053722;28;20076;-69
2023/05/23 09:01:08;;;;;;;18.17;9.38;;;13.00;99.90;;;;;;5053881;28;20025;-69
2023/05/23 09:03:36;;;;;;;17.52;9.65;;;13.00;99.90;;;;;;5053853;28;20025;-69
2023/05/23 09:06:06;;;;;;;19.50;9.95;;;13.00;99.90;;;;;;5053622;28;20029;-69
2023/05/23 09:08:31;;;;;;;19.70;10.27;;;13.00;99.90;;;;;;5053151;28;20025;-69
2023/05/23 09:10:57;;;;;;;20.50;9.95;;;12.90;99.90;;;;;;5053474;28;20082;-69
2023/05/23 09:13:24;;;;;;;17.90;10.05;;;12.90;99.90;;;;;;5053698;28;20029;-69
2023/05/23 09:16:06;;;;;;;18.25;9.75;;;12.90;99.90;;;;;;5053322;28;20033;-69
2023/05/23 09:18:35;;;;;;;17.20;10.07;;;12.80;99.90;;;;;;5053631;28;20032;-70
2023/05/23 09:21:01;;;;;;;18.75;9.48;;;12.90;99.90;;;;;;5053524;28;20032;-70
2023/05/23 09:23:30;;;;;;;18.98;9.30;;;12.70;99.90;;;;;;5053195;28;20033;-69
2023/05/23 09:25:56;;;;;;;13.65;8.60;;;12.70;99.90;;;;;;5059854;28;20051;-69
2023/05/23 09:28:22;;;;;;;18.63;10.10;;;12.70;99.90;;;;;;5072081;28;20029;-69
2023/05/23 09:30:57;;;;;;;15.52;9.15;;;12.80;99.90;;;;;;5073412;28;20013;-69
2023/05/23 09:33:27;;;;;;;18.65;9.50;;;12.90;99.90;;;;;;5073389;28;20470;-69
2023/05/23 09:35:53;;;;;;;18.92;9.98;;;12.80;99.90;;;;;;5073101;28;20025;-69
2023/05/23 09:38:18;;;;;;;20.23;10.07;;;12.80;99.90;;;;;;5073097;28;20035;-69
2023/05/23 09:40:44;;;;;;;19.70;10.77;;;12.80;99.90;;;;;;5072917;28;20032;-69
2023/05/23 09:43:10;;;;;;;18.17;10.55;;;12.80;99.90;;;;;;5072237;28;20032;-69
2023/05/23 09:45:35;;;;;;;16.95;9.75;;;12.90;99.90;;;;;;5073037;28;20056;-69
2023/05/23 09:48:01;;;;;;;15.82;11.00;;;12.80;99.90;;;;;;5072854;28;20032;-69
2023/05/23 09:50:32;;;;;;;19.80;10.35;;;12.80;99.90;;;;;;5068745;28;20029;-68
2023/05/23 09:52:59;;;;;;;18.60;10.65;;;12.70;99.90;;;;;;5053057;28;20106;-69
2023/05/23 09:55:24;;;;;;;25.73;12.27;;;12.60;99.90;;;;;;5053111;28;20017;-69
2023/05/23 09:57:56;;;;;;;22.88;11.68;;;12.70;99.90;;;;;;5070108;28;20028;-68
2023/05/23 10:00:23;;;;;;;20.02;10.75;;;12.50;99.90;;;;;;5073019;28;20040;-68
2023/05/23 10:03:06;;;;;;;26.42;11.38;;;12.60;99.90;;;;;;5070796;28;20025;-69
2023/05/23 10:05:40;;;;;;;23.67;11.85;;;12.60;99.90;;;;;;5073024;28;20036;-69
2023/05/23 10:08:10;;;;;;;25.40;13.02;;;12.60;99.90;;;;;;5072852;28;20033;-69
2023/05/23 10:11:09;;;;;;;32.17;12.73;;;12.50;99.90;;;;;;5072918;28;20025;-69
2023/05/23 10:13:35;;;;;;;26.33;13.15;;;12.30;99.90;;;;;;5072628;28;20036;-68
2023/05/23 10:16:08;;;;;;;25.95;11.32;;;12.20;99.90;;;;;;5072485;28;20420;-67
2023/05/23 10:18:38;;;;;;;;;;;12.30;99.90;;;;;;5072144;28;20505;-68
2023/05/23 10:21:08;;;;;;;19.67;10.80;;;12.50;99.90;;;;;;5072719;28;19954;-68
2023/05/23 10:23:36;;;;;;;18.10;9.90;;;12.60;99.90;;;;;;5071759;28;20032;-67
2023/05/23 10:26:03;;;;;;;20.77;8.23;;;12.80;99.90;;;;;;5063017;28;20028;-68
2023/05/23 10:28:30;;;;;;;21.40;8.30;;;12.90;99.90;;;;;;5055988;28;20039;-68
2023/05/23 10:30:56;;;;;;;20.08;7.50;;;13.10;99.90;;;;;;5056909;28;20390;-68
2023/05/23 10:33:22;;;;;;;14.50;7.55;;;13.30;78.30;;;;;;5071613;28;20089;-68
2023/05/23 10:35:56;;;;;;;16.13;6.85;;;13.50;61.20;;;;;;5070856;28;20037;-68
2023/05/23 10:38:49;;;;;;;15.40;6.63;;;13.80;38.20;;;;;;5057833;28;20025;-67
2023/05/23 10:41:26;;;;;;;14.77;6.18;;;14.10;24.90;;;;;;5051336;28;20029;-67
2023/05/23 10:44:19;;;;;;;15.57;6.28;;;14.00;1.40;;;;;;5052458;28;20482;-68
2023/05/23 10:46:56;;;;;;;19.95;7.07;;;14.00;1.00;;;;;;5071986;28;20025;-67
2023/05/23 10:49:44;;;;;;;12.68;5.65;;;14.60;1.00;;;;;;5072224;28;20035;-67
2023/05/23 10:52:15;;;;;;;13.05;5.95;;;14.90;1.00;;;;;;5074814;28;20031;-68
2023/05/23 10:54:45;;;;;;;14.15;6.03;;;14.70;1.00;;;;;;5075922;28;20021;-68
2023/05/23 10:57:15;;;;;;;12.93;5.95;;;15.20;1.00;;;;;;5074878;28;20501;-69
2023/05/23 10:59:41;;;;;;;14.02;5.57;;;15.80;1.00;;;;;;5075815;28;20024;-69
2023/05/23 11:02:13;;;;;;;13.23;5.80;;;;;;;;;;5076032;28;20052;-68
2023/05/23 11:04:39;;;;;;;13.93;5.70;;;;;;;;;;5075753;28;20047;-68
2023/05/23 11:07:05;;;;;;;18.50;5.82;;;17.40;99.90;;;;;;5075612;28;20039;-68
2023/05/23 11:09:30;;;;;;;12.13;6.22;;;17.70;99.90;;;;;;5074567;28;20474;-68
2023/05/23 11:12:04;;;;;;;15.30;6.28;;;17.10;99.90;;;;;;5075575;28;20051;-68
2023/05/23 11:20:06;;;;;;;16.52;5.80;;;17.00;1.00;;;;;;5110957;27;20132;-68
2023/05/23 11:22:32;;;;;;;12.70;5.45;;;16.30;99.90;;;;;;5099558;28;20416;-68
2023/05/23 11:25:00;;;;;;;13.63;6.15;;;15.90;99.90;;;;;;5107903;28;20012;-67
2023/05/23 11:27:35;;;;;;;20.92;6.15;;;15.30;1.00;;;;;;5109597;28;20015;-67
2023/05/23 11:30:05;;;;;;;17.05;5.57;;;15.20;1.00;;;;;;5089239;28;20070;-68
2023/05/23 11:32:32;;;;;;;16.27;5.38;;;15.00;1.00;;;;;;5090655;28;20385;-68
2023/05/23 11:34:59;;;;;;;16.95;6.18;;;15.40;1.00;;;;;;5090408;28;20025;-68
2023/05/23 11:37:25;;;;;;;14.88;5.60;;;15.60;1.00;;;;;;5090234;28;20424;-68
2023/05/23 11:39:51;;;;;;;19.02;5.45;;;15.90;1.00;;;;;;5098480;28;20489;-67
2023/05/23 11:42:16;;;;;;;16.88;5.32;;;15.70;99.90;;;;;;5090372;28;20028;-68
2023/05/23 11:44:42;;;;;;;14.05;5.45;;;15.30;99.90;;;;;;5090568;28;20056;-68
2023/05/23 11:47:07;;;;;;;17.20;5.85;;;15.50;1.00;;;;;;5090371;28;20081;-69
2023/05/23 11:49:36;;;;;;;16.80;5.75;;;15.10;1.00;;;;;;5093756;28;20021;-68
2023/05/23 11:52:03;;;;;;;16.70;5.88;;;14.90;1.00;;;;;;5091989;28;20039;-69
2023/05/23 11:54:29;;;;;;;20.45;6.03;;;14.80;1.00;;;;;;5109476;28;20058;-68
2023/05/23 11:56:56;;;;;;;19.67;6.70;;;14.70;1.00;;;;;;5110262;28;20485;-68
2023/05/23 11:59:22;;;;;;;26.88;7.38;;;14.20;1.00;;;;;;5110277;28;20085;-68
2023/05/23 12:01:48;;;;;;;25.52;6.43;;;13.80;1.00;;;;;;5109192;28;20020;-68
2023/05/23 12:04:14;;;;;;;26.65;6.57;;;14.30;1.00;;;;;;5104957;28;20491;-68
2023/05/23 12:06:40;;;;;;;19.45;6.38;;;14.10;1.00;;;;;;5094699;28;20390;-68
2023/05/23 12:09:07;;;;;;;20.20;6.03;;;14.20;1.00;;;;;;5089664;28;20032;-68
2023/05/23 12:11:34;;;;;;;20.40;5.32;;;14.30;1.00;;;;;;5089826;28;20039;-67
2023/05/23 12:14:01;;;;;;;21.58;5.05;;;14.90;1.00;;;;;;5106247;28;20555;-68
2023/05/23 12:16:28;;;;;;;11.65;4.75;;;15.40;99.90;;;;;;5109996;28;20059;-68
2023/05/23 12:18:55;;;;;;;16.42;5.32;;;16.50;93.10;;;;;;5109589;28;20048;-68
2023/05/23 12:21:25;;;;;;;18.50;5.85;;;17.20;1.00;;;;;;5108767;28;20038;-68
2023/05/23 12:23:50;;;;;;;12.18;5.00;;;16.70;99.90;;;;;;5108503;28;20016;-68
2023/05/23 12:26:16;;;;;;;20.13;5.70;;;17.00;1.00;;;;;;5071719;28;20025;-68
2023/05/23 12:28:44;;;;;;;19.75;5.63;;;17.00;99.90;;;;;;5068927;28;20032;-68
2023/05/23 12:31:16;;;;;;;15.60;5.38;;;17.20;5.80;;;;;;5054870;28;20021;-68
2023/05/23 12:33:43;;;;;;;17.15;5.05;;;17.20;99.90;;;;;;5055716;28;20397;-68
2023/05/23 12:36:10;;;;;;;18.58;5.72;;;16.90;99.90;;;;;;5073159;28;20025;-67
2023/05/23 12:38:37;;;;;;;16.63;5.10;;;16.50;1.00;;;;;;5075794;28;20470;-67